UHBB

Ignatyevo

Blagoveschensk, Russian Federation
TAF UHBB 192241Z 2000/2024 35003MPS CAVOK BECMG 2015/2017 16003MPS
Issued Valid From Valid To
Oct-19 @ 22:41 UTC
(4 hours ago)
Oct-20 @ 00:00 UTC
(2 hours ago)
Oct-21 @ 00:00 UTC
(in 22 hours)
Oct-20 @ 00:00 to Oct-20 @ 15:00
TAF UHBB 192241Z 2000/2024 35003MPS CAVOK
Wind Visibility Clouds Conditions
350° at 6 knots 10,000+ meters
  • No significant clouds
Becoming Oct-20 @ 15:00 to Oct-21 @ 00:00
BECMG 2015/2017 16003MPS
Wind Visibility Clouds Conditions
160° at 6 knots 10,000+ meters
  • No significant clouds
TAF UHBB 192241Z 2000/2024 35003MPS CAVOK BECMG 2015/2017 16003MPS
Issued Oct-19 @ 22:41 UTC
(4 hours ago)
Valid From Oct-20 @ 00:00 UTC
(2 hours ago)
Valid To Oct-21 @ 00:00 UTC
(in 22 hours)
Oct-20 @ 00:00 - Oct-20 @ 15:00
Wind Visibility
350° at 6 knots 10,000+ meters
Clouds
  • No significant clouds
Conditions
Becoming Oct-20 @ 15:00 - Oct-21 @ 00:00
Wind Visibility
160° at 6 knots 10,000+ meters
Clouds
  • No significant clouds
Conditions